createdAt,value
2022-10-16T00:00:07.360Z,72.17
2022-10-16T00:01:07.388Z,71.97
2022-10-16T00:02:07.393Z,72.08
2022-10-16T00:03:07.326Z,72.08
2022-10-16T00:04:07.323Z,72.08
2022-10-16T00:05:07.343Z,71.97
2022-10-16T00:06:07.292Z,71.97
2022-10-16T00:07:07.278Z,72.17
2022-10-16T00:08:07.283Z,72.04
2022-10-16T00:09:07.283Z,72.04
2022-10-16T00:10:07.246Z,71.94
2022-10-16T00:11:07.244Z,71.94
2022-10-16T00:12:07.223Z,71.73
2022-10-16T00:13:07.210Z,71.80
2022-10-16T00:14:07.198Z,71.70
2022-10-16T00:15:07.202Z,71.91
2022-10-16T00:16:07.177Z,71.80
2022-10-16T00:17:07.182Z,71.70
2022-10-16T00:18:07.150Z,71.80
2022-10-16T00:19:07.141Z,71.91
2022-10-16T00:20:07.124Z,72.01
2022-10-16T00:21:07.149Z,71.91
2022-10-16T00:22:07.108Z,72.01
2022-10-16T00:23:07.129Z,72.08
2022-10-16T00:24:07.091Z,71.87
2022-10-16T00:25:07.077Z,71.36
2022-10-16T00:26:07.057Z,71.77
2022-10-16T00:27:07.056Z,71.77
2022-10-16T00:28:07.047Z,71.67
2022-10-16T00:29:07.063Z,71.84
2022-10-16T00:30:07.025Z,71.64
2022-10-16T00:31:07.029Z,71.84
2022-10-16T00:32:06.993Z,71.53
2022-10-16T00:33:07.006Z,71.70
2022-10-16T00:34:06.966Z,71.60
2022-10-16T00:35:06.979Z,71.80
2022-10-16T00:36:06.948Z,71.60
2022-10-16T00:37:06.944Z,71.60
2022-10-16T00:38:06.931Z,71.50
2022-10-16T00:39:06.914Z,71.50
2022-10-16T00:40:06.939Z,71.50
2022-10-16T00:41:06.925Z,71.57
2022-10-16T00:42:06.880Z,71.57
2022-10-16T00:43:06.874Z,71.26
2022-10-16T00:44:06.861Z,71.16
2022-10-16T00:45:06.893Z,71.47
2022-10-16T00:46:06.837Z,71.23
2022-10-16T00:47:06.879Z,71.23
2022-10-16T00:49:06.799Z,71.23
2022-10-16T00:50:06.799Z,71.23
2022-10-16T00:51:06.789Z,71.53
2022-10-16T00:52:06.777Z,71.33
2022-10-16T00:53:06.795Z,71.30
2022-10-16T00:54:06.745Z,71.03
2022-10-16T00:55:06.728Z,71.30
2022-10-16T00:56:06.723Z,71.09
2022-10-16T00:57:06.748Z,70.89
2022-10-16T00:58:06.701Z,71.09
2022-10-16T00:59:06.723Z,71.09
2022-10-16T01:00:06.675Z,71.06
2022-10-16T01:01:06.716Z,71.06
2022-10-16T01:02:06.653Z,71.16
2022-10-16T01:03:06.666Z,71.06
2022-10-16T01:04:06.624Z,71.16
2022-10-16T01:05:06.653Z,71.37
2022-10-16T01:06:06.692Z,71.16
2022-10-16T01:07:06.593Z,71.16
2022-10-16T01:08:06.590Z,71.16
2022-10-16T01:09:06.622Z,71.03
2022-10-16T01:10:06.564Z,71.13
2022-10-16T01:11:06.562Z,71.03
2022-10-16T01:12:06.552Z,71.13
2022-10-16T01:13:06.534Z,71.13
2022-10-16T01:14:06.515Z,71.03
2022-10-16T01:15:06.513Z,71.13
2022-10-16T01:16:06.491Z,71.13
2022-10-16T01:17:06.513Z,71.13
2022-10-16T01:18:06.467Z,71.03
2022-10-16T01:19:06.481Z,71.13
2022-10-16T01:20:06.450Z,71.03
2022-10-16T01:21:06.468Z,71.13
2022-10-16T01:22:06.455Z,71.13
2022-10-16T01:23:06.426Z,70.93
2022-10-16T01:24:06.404Z,71.13
2022-10-16T01:25:06.388Z,71.13
2022-10-16T01:26:06.380Z,71.00
2022-10-16T01:27:06.372Z,70.89
2022-10-16T01:28:06.361Z,71.13
2022-10-16T01:29:06.379Z,71.00
2022-10-16T01:30:06.337Z,71.09
2022-10-16T01:31:06.323Z,71.00
2022-10-16T01:32:06.309Z,71.09
2022-10-16T01:33:06.301Z,70.89
2022-10-16T01:34:06.290Z,70.89
2022-10-16T01:35:06.335Z,70.89
2022-10-16T01:36:06.271Z,70.89
2022-10-16T01:37:06.258Z,71.00
2022-10-16T01:38:06.242Z,71.00
2022-10-16T01:39:06.234Z,70.89
2022-10-16T01:40:06.234Z,70.89
2022-10-16T01:41:06.228Z,71.00
2022-10-16T01:42:06.201Z,71.09
2022-10-16T01:43:06.224Z,70.89
2022-10-16T01:44:06.180Z,70.89
2022-10-16T01:45:06.169Z,70.89
2022-10-16T01:46:06.162Z,70.86
2022-10-16T01:47:06.155Z,70.89
2022-10-16T01:48:06.134Z,70.89
2022-10-16T01:49:06.119Z,70.86
2022-10-16T01:50:06.111Z,71.40
2022-10-16T01:51:06.116Z,71.00
2022-10-16T01:52:06.109Z,70.89
2022-10-16T01:53:06.092Z,70.89
2022-10-16T01:54:06.066Z,71.00
2022-10-16T01:55:06.064Z,70.89
2022-10-16T01:56:06.037Z,71.30
2022-10-16T01:57:06.024Z,71.00
2022-10-16T01:58:06.034Z,71.00
2022-10-16T01:59:06.040Z,71.30
2022-10-16T02:00:06.000Z,71.20
2022-10-16T02:01:06.115Z,71.09
2022-10-16T02:02:05.970Z,71.20
2022-10-16T02:03:05.965Z,71.06
2022-10-16T02:04:06.441Z,71.06
2022-10-16T02:05:05.956Z,70.96
2022-10-16T02:06:05.930Z,71.47
2022-10-16T02:07:05.943Z,71.47
2022-10-16T02:08:06.017Z,70.96
2022-10-16T02:09:05.904Z,71.06
2022-10-16T02:10:05.909Z,71.06
2022-10-16T02:11:05.898Z,71.30
2022-10-16T02:12:05.870Z,70.96
2022-10-16T02:13:05.877Z,70.96
2022-10-16T02:14:05.837Z,70.96
2022-10-16T02:15:05.822Z,70.96
2022-10-16T02:16:05.813Z,70.96
2022-10-16T02:17:05.816Z,71.26
2022-10-16T02:18:05.786Z,71.16
2022-10-16T02:19:05.782Z,71.26
2022-10-16T02:20:05.767Z,71.06
2022-10-16T02:21:05.760Z,71.16
2022-10-16T02:22:05.749Z,71.16
2022-10-16T02:23:05.832Z,71.16
2022-10-16T02:24:05.725Z,71.16
2022-10-16T02:25:05.705Z,71.26
2022-10-16T02:26:05.761Z,71.26
2022-10-16T02:27:05.690Z,71.06
2022-10-16T02:28:05.673Z,71.06
2022-10-16T02:29:05.699Z,71.37
2022-10-16T02:30:05.654Z,71.40
2022-10-16T02:31:05.660Z,71.26
2022-10-16T02:32:05.632Z,71.47
2022-10-16T02:33:05.619Z,71.20
2022-10-16T02:34:05.645Z,71.47
2022-10-16T02:35:05.641Z,71.60
2022-10-16T02:36:05.587Z,71.40
2022-10-16T02:37:05.592Z,71.37
2022-10-16T02:38:05.608Z,71.37
2022-10-16T02:39:05.570Z,71.47
2022-10-16T02:40:05.551Z,71.50
2022-10-16T02:41:05.627Z,71.40
2022-10-16T02:42:05.515Z,71.30
2022-10-16T02:43:05.510Z,71.50
2022-10-16T02:44:05.491Z,71.30
2022-10-16T02:45:05.489Z,71.30
2022-10-16T02:46:05.466Z,71.40
2022-10-16T02:47:05.530Z,71.60
2022-10-16T02:48:05.457Z,71.30
2022-10-16T02:49:05.455Z,71.80
2022-10-16T02:50:05.425Z,71.30
2022-10-16T02:51:05.421Z,71.30
2022-10-16T02:52:05.416Z,71.30
2022-10-16T02:53:05.408Z,71.40
2022-10-16T02:54:05.384Z,71.50
2022-10-16T02:55:05.392Z,71.40
2022-10-16T02:56:05.377Z,71.50
2022-10-16T02:57:05.346Z,71.50
2022-10-16T02:58:05.340Z,71.50
2022-10-16T02:59:05.343Z,71.53
2022-10-16T03:00:05.313Z,71.64
2022-10-16T03:01:05.385Z,71.73
2022-10-16T03:02:05.293Z,71.53
2022-10-16T03:03:05.282Z,71.33
2022-10-16T03:04:05.264Z,71.64
2022-10-16T03:05:05.316Z,71.94
2022-10-16T03:06:05.255Z,72.24
2022-10-16T03:07:05.237Z,72.65
2022-10-16T03:08:05.226Z,72.96
2022-10-16T03:09:05.215Z,72.45
2022-10-16T03:10:05.213Z,71.47
2022-10-16T03:11:05.222Z,72.55
2022-10-16T03:12:05.201Z,72.34
2022-10-16T03:13:05.168Z,71.37
2022-10-16T03:14:05.156Z,72.17
2022-10-16T03:15:05.163Z,71.47
2022-10-16T03:16:05.137Z,72.38
2022-10-16T03:17:05.147Z,71.37
2022-10-16T03:18:05.115Z,72.17
2022-10-16T03:19:05.104Z,72.48
2022-10-16T03:20:05.090Z,71.37
2022-10-16T03:21:05.096Z,72.48
2022-10-16T03:22:05.064Z,72.28
2022-10-16T03:23:05.086Z,71.77
2022-10-16T03:24:05.039Z,71.77
2022-10-16T03:25:05.034Z,72.38
2022-10-16T03:26:05.017Z,71.57
2022-10-16T03:27:05.028Z,72.28
2022-10-16T03:28:05.001Z,71.37
2022-10-16T03:29:05.090Z,72.28
2022-10-16T03:30:04.971Z,72.58
2022-10-16T03:31:04.966Z,72.45
2022-10-16T03:32:04.956Z,72.45
2022-10-16T03:33:04.942Z,72.55
2022-10-16T03:34:04.932Z,72.58
2022-10-16T03:35:04.956Z,72.55
2022-10-16T03:36:04.912Z,72.55
2022-10-16T03:37:04.897Z,72.45
2022-10-16T03:38:04.892Z,71.73
2022-10-16T03:39:04.874Z,72.75
2022-10-16T03:40:04.859Z,71.94
2022-10-16T03:41:04.875Z,72.14
2022-10-16T03:42:04.844Z,72.14
2022-10-16T03:43:04.923Z,71.53
2022-10-16T03:44:04.818Z,71.13
2022-10-16T03:45:04.805Z,72.75
2022-10-16T03:46:04.800Z,71.53
2022-10-16T03:47:04.830Z,71.94
2022-10-16T03:48:04.792Z,72.04
2022-10-16T03:49:07.452Z,71.94
2022-10-16T03:50:05.744Z,71.64
2022-10-16T03:51:04.739Z,71.44
2022-10-16T03:52:04.724Z,71.64
2022-10-16T03:53:04.733Z,72.24
2022-10-16T03:54:04.705Z,72.14
2022-10-16T03:55:04.692Z,72.14
2022-10-16T03:56:04.686Z,72.75
2022-10-16T03:57:04.666Z,72.75
2022-10-16T03:58:04.660Z,71.44
2022-10-16T03:59:04.730Z,72.55
2022-10-16T04:00:04.637Z,71.44
2022-10-16T04:01:04.670Z,72.45
2022-10-16T04:02:04.634Z,72.55
2022-10-16T04:03:04.612Z,71.33
2022-10-16T04:04:04.586Z,72.34
2022-10-16T04:05:04.609Z,72.45
2022-10-16T04:06:04.561Z,72.14
2022-10-16T04:07:04.555Z,71.73
2022-10-16T04:08:04.544Z,72.34
2022-10-16T04:09:04.560Z,71.53
2022-10-16T04:10:04.519Z,71.94
2022-10-16T04:11:04.538Z,71.64
2022-10-16T04:12:04.497Z,71.33
2022-10-16T04:13:04.487Z,71.84
2022-10-16T04:14:04.484Z,72.45
2022-10-16T04:15:04.487Z,71.88
2022-10-16T04:16:04.461Z,71.47
2022-10-16T04:17:04.468Z,71.84
2022-10-16T04:18:04.432Z,71.57
2022-10-16T04:19:04.417Z,72.28
2022-10-16T04:20:04.411Z,72.17
2022-10-16T04:21:04.395Z,72.08
2022-10-16T04:22:04.387Z,72.08
2022-10-16T04:23:04.401Z,72.08
2022-10-16T04:24:04.366Z,71.57
2022-10-16T04:25:04.359Z,71.67
2022-10-16T04:26:04.378Z,71.67
2022-10-16T04:27:04.335Z,72.01
2022-10-16T04:28:04.315Z,71.67
2022-10-16T04:29:04.413Z,72.01
2022-10-16T04:30:04.290Z,71.70
2022-10-16T04:31:04.309Z,72.11
2022-10-16T04:32:04.273Z,71.91
2022-10-16T04:33:04.261Z,71.91
2022-10-16T04:34:04.247Z,71.64
2022-10-16T04:35:04.263Z,71.94
2022-10-16T04:36:04.226Z,72.25
2022-10-16T04:37:04.215Z,72.04
2022-10-16T04:38:04.205Z,71.94
2022-10-16T04:39:04.189Z,71.94
2022-10-16T04:40:04.182Z,71.94
2022-10-16T04:41:04.195Z,72.04
2022-10-16T04:42:04.184Z,71.73
2022-10-16T04:43:04.158Z,71.94
2022-10-16T04:44:04.132Z,72.04
2022-10-16T04:45:04.140Z,72.04
2022-10-16T04:46:04.108Z,72.04
2022-10-16T04:47:04.135Z,72.14
2022-10-16T04:48:04.090Z,72.14
2022-10-16T04:49:04.075Z,71.94
2022-10-16T04:50:04.064Z,72.14
2022-10-16T04:51:04.055Z,71.94
2022-10-16T04:52:04.043Z,71.84
2022-10-16T04:53:04.056Z,71.94
2022-10-16T04:54:04.020Z,71.94
2022-10-16T04:55:04.065Z,71.94
2022-10-16T04:56:03.995Z,71.94
2022-10-16T04:57:03.989Z,71.84
2022-10-16T04:58:03.977Z,71.84
2022-10-16T04:59:03.996Z,71.94
2022-10-16T05:00:03.945Z,71.94
2022-10-16T05:01:03.964Z,72.11
2022-10-16T05:02:03.927Z,71.94
2022-10-16T05:03:04.021Z,71.94
2022-10-16T05:04:03.907Z,71.80
2022-10-16T05:05:03.922Z,71.80
2022-10-16T05:06:03.888Z,72.04
2022-10-16T05:07:03.870Z,71.64
2022-10-16T05:08:03.849Z,71.80
2022-10-16T05:09:03.870Z,71.50
2022-10-16T05:10:03.846Z,71.80
2022-10-16T05:11:03.857Z,72.31
2022-10-16T05:12:03.816Z,71.80
2022-10-16T05:13:03.818Z,71.91
2022-10-16T05:14:03.851Z,71.91
2022-10-16T05:15:03.797Z,71.70
2022-10-16T05:16:03.765Z,71.67
2022-10-16T05:17:03.785Z,71.57
2022-10-16T05:18:03.745Z,71.91
2022-10-16T05:19:26.420Z,72.41
2022-10-16T05:20:04.727Z,71.40
2022-10-16T05:21:03.712Z,71.60
2022-10-16T05:22:03.695Z,71.50
2022-10-16T05:23:03.851Z,71.70
2022-10-16T05:24:03.677Z,71.70
2022-10-16T05:25:03.684Z,71.40
2022-10-16T05:26:03.657Z,72.41
2022-10-16T05:27:03.640Z,71.50
2022-10-16T05:28:03.628Z,72.58
2022-10-16T05:29:03.755Z,72.72
2022-10-16T05:30:04.863Z,72.78
2022-10-16T05:31:03.595Z,72.78
2022-10-16T05:32:03.582Z,72.72
2022-10-16T05:33:03.570Z,72.28
2022-10-16T05:34:03.560Z,72.68
2022-10-16T05:35:04.858Z,72.17
2022-10-16T05:36:03.536Z,71.97
2022-10-16T05:37:03.529Z,72.08
2022-10-16T05:38:03.518Z,71.26
2022-10-16T05:39:03.501Z,72.08
2022-10-16T05:40:03.497Z,71.97
2022-10-16T05:41:03.512Z,71.53
2022-10-16T05:42:03.477Z,71.94
2022-10-16T05:43:03.456Z,71.53
2022-10-16T05:44:03.541Z,71.44
2022-10-16T05:45:03.432Z,71.53
2022-10-16T05:46:03.427Z,71.73
2022-10-16T05:47:03.443Z,71.64
2022-10-16T05:48:03.400Z,71.53
2022-10-16T05:49:03.412Z,71.73
2022-10-16T05:50:03.375Z,71.73
2022-10-16T05:51:03.481Z,71.84
2022-10-16T05:52:03.362Z,71.64
2022-10-16T05:53:03.371Z,71.73
2022-10-16T05:54:03.334Z,71.53
2022-10-16T05:55:03.367Z,71.44
2022-10-16T05:56:03.314Z,71.64
2022-10-16T05:57:03.304Z,71.50
2022-10-16T05:58:03.334Z,71.20
2022-10-16T05:59:03.326Z,71.50
2022-10-16T06:00:03.267Z,71.50
2022-10-16T06:01:03.316Z,71.30
2022-10-16T06:02:03.245Z,71.50
2022-10-16T06:03:03.230Z,71.13
2022-10-16T06:04:03.332Z,71.09
2022-10-16T06:05:03.236Z,71.09
2022-10-16T06:06:03.236Z,71.09
2022-10-16T06:07:03.210Z,71.50
2022-10-16T06:08:03.168Z,71.20
2022-10-16T06:09:03.163Z,71.44
2022-10-16T06:10:03.158Z,71.44
2022-10-16T06:11:03.167Z,71.53
2022-10-16T06:12:03.137Z,71.33
2022-10-16T06:13:03.118Z,71.53
2022-10-16T06:14:03.133Z,71.53
2022-10-16T06:15:03.099Z,71.50
2022-10-16T06:16:03.081Z,71.40
2022-10-16T06:17:03.107Z,71.30
2022-10-16T06:18:03.063Z,71.40
2022-10-16T06:19:03.048Z,71.50
2022-10-16T06:20:03.033Z,71.50
2022-10-16T06:21:03.042Z,71.09
2022-10-16T06:22:03.013Z,71.00
2022-10-16T06:23:03.048Z,71.09
2022-10-16T06:24:02.993Z,71.20
2022-10-16T06:25:02.983Z,71.30
2022-10-16T06:26:02.965Z,71.20
2022-10-16T06:27:02.961Z,71.00
2022-10-16T06:28:02.946Z,71.26
2022-10-16T06:29:03.063Z,70.96
2022-10-16T06:30:02.928Z,71.16
2022-10-16T06:31:05.737Z,70.96
2022-10-16T06:32:03.893Z,71.06
2022-10-16T06:33:02.895Z,71.06
2022-10-16T06:34:02.873Z,70.96
2022-10-16T06:35:02.879Z,71.33
2022-10-16T06:36:02.850Z,70.93
2022-10-16T06:37:02.844Z,70.83
2022-10-16T06:38:02.831Z,70.79
2022-10-16T06:39:02.846Z,70.83
2022-10-16T06:40:02.806Z,70.79
2022-10-16T06:41:02.812Z,71.00
2022-10-16T06:42:02.794Z,71.00
2022-10-16T06:43:02.775Z,70.89
2022-10-16T06:44:02.765Z,70.66
2022-10-16T06:45:02.758Z,70.66
2022-10-16T06:46:02.743Z,70.66
2022-10-16T06:47:02.788Z,70.73
2022-10-16T06:48:02.714Z,70.42
2022-10-16T06:49:02.707Z,70.53
2022-10-16T06:50:02.696Z,70.62
2022-10-16T06:51:02.686Z,70.49
2022-10-16T06:52:02.681Z,70.49
2022-10-16T06:53:02.689Z,70.39
2022-10-16T06:54:03.998Z,70.46
2022-10-16T06:55:02.660Z,70.56
2022-10-16T06:56:02.665Z,69.95
2022-10-16T06:57:02.622Z,69.92
2022-10-16T06:58:02.604Z,69.92
2022-10-16T06:59:02.648Z,69.82
2022-10-16T07:00:02.579Z,69.72
2022-10-16T07:01:02.568Z,69.79
2022-10-16T07:02:02.575Z,69.89
2022-10-16T07:03:02.550Z,69.79
2022-10-16T07:04:02.639Z,69.75
2022-10-16T07:05:02.544Z,70.06
2022-10-16T07:06:02.513Z,70.15
2022-10-16T07:07:04.487Z,70.15
2022-10-16T07:08:02.487Z,69.95
2022-10-16T07:09:02.472Z,70.02
2022-10-16T07:10:02.471Z,70.02
2022-10-16T07:11:02.509Z,70.12
2022-10-16T07:12:02.443Z,70.02
2022-10-16T07:13:02.436Z,70.09
2022-10-16T07:14:02.417Z,70.19
2022-10-16T07:15:02.411Z,70.09
2022-10-16T07:16:02.403Z,69.89
2022-10-16T07:17:02.415Z,70.09
2022-10-16T07:18:02.383Z,70.09
2022-10-16T07:19:02.365Z,70.19
2022-10-16T07:20:02.352Z,69.96
2022-10-16T07:21:02.336Z,70.06
2022-10-16T07:22:02.327Z,70.09
2022-10-16T07:23:02.367Z,70.06
2022-10-16T07:24:02.615Z,69.96
2022-10-16T07:25:02.300Z,70.06
2022-10-16T07:26:02.280Z,70.06
2022-10-16T07:27:02.309Z,70.06
2022-10-16T07:28:02.265Z,70.06
2022-10-16T07:29:02.386Z,69.96
2022-10-16T07:30:05.080Z,70.23
2022-10-16T07:31:03.254Z,69.92
2022-10-16T07:32:02.219Z,70.03
2022-10-16T07:33:02.200Z,70.23
2022-10-16T07:34:02.193Z,69.89
2022-10-16T07:35:02.208Z,69.92
2022-10-16T07:36:02.168Z,70.09
2022-10-16T07:37:02.174Z,70.09
2022-10-16T07:38:02.147Z,69.89
2022-10-16T07:39:02.137Z,69.99
2022-10-16T07:40:02.146Z,69.85
2022-10-16T07:41:02.132Z,69.79
2022-10-16T07:42:02.100Z,69.96
2022-10-16T07:43:02.112Z,69.99
2022-10-16T07:44:02.081Z,69.85
2022-10-16T07:45:02.122Z,69.35
2022-10-16T07:46:04.020Z,69.65
2022-10-16T07:47:02.079Z,69.56
2022-10-16T07:48:02.035Z,69.85
2022-10-16T07:49:02.022Z,69.56
2022-10-16T07:50:02.010Z,70.06
2022-10-16T07:51:02.003Z,69.96
2022-10-16T07:52:01.991Z,69.85
2022-10-16T07:53:02.074Z,69.85
2022-10-16T07:54:01.969Z,69.96
2022-10-16T07:55:01.985Z,69.96
2022-10-16T07:56:01.950Z,69.96
2022-10-16T07:57:01.931Z,69.92
2022-10-16T07:58:01.922Z,69.85
2022-10-16T07:59:01.945Z,69.82
2022-10-16T08:00:01.900Z,69.92
2022-10-16T08:01:01.949Z,70.03
2022-10-16T08:02:04.550Z,69.92
2022-10-16T08:03:01.875Z,69.92
2022-10-16T08:04:01.893Z,69.82
2022-10-16T08:05:01.920Z,70.12
2022-10-16T08:06:01.853Z,69.82
2022-10-16T08:07:01.815Z,69.92
2022-10-16T08:08:01.813Z,70.03
2022-10-16T08:09:01.792Z,69.92
2022-10-16T08:10:01.782Z,69.92
2022-10-16T08:11:01.806Z,70.03
2022-10-16T08:12:02.583Z,69.79
2022-10-16T08:13:01.799Z,69.92
2022-10-16T08:14:01.743Z,70.12
2022-10-16T08:15:01.755Z,69.92
2022-10-16T08:16:01.720Z,69.99
2022-10-16T08:17:01.721Z,69.99
2022-10-16T08:18:01.687Z,69.92
2022-10-16T08:19:01.700Z,69.89
2022-10-16T08:20:01.688Z,69.99
2022-10-16T08:21:01.667Z,69.89
2022-10-16T08:22:01.748Z,70.03
2022-10-16T08:23:01.653Z,70.03
2022-10-16T08:24:01.623Z,69.89
2022-10-16T08:25:01.649Z,69.89
2022-10-16T08:26:01.596Z,69.89
2022-10-16T08:27:01.590Z,69.79
2022-10-16T08:28:01.582Z,69.89
2022-10-16T08:29:01.718Z,69.89
2022-10-16T08:30:01.567Z,69.66
2022-10-16T08:31:01.566Z,69.85
2022-10-16T08:32:01.549Z,69.59
2022-10-16T08:33:01.531Z,69.76
2022-10-16T08:34:01.511Z,69.46
2022-10-16T08:35:01.565Z,69.26
2022-10-16T08:36:01.488Z,69.46
2022-10-16T08:37:01.475Z,69.35
2022-10-16T08:38:01.477Z,69.35
2022-10-16T08:39:01.453Z,69.35
2022-10-16T08:40:01.458Z,69.26
2022-10-16T08:41:01.446Z,68.92
2022-10-16T08:42:01.419Z,69.32
2022-10-16T08:43:01.413Z,69.12
2022-10-16T08:44:01.397Z,69.32
2022-10-16T08:45:01.390Z,69.15
2022-10-16T08:46:01.370Z,69.35
2022-10-16T08:47:01.490Z,69.32
2022-10-16T08:48:01.370Z,69.22
2022-10-16T08:49:01.341Z,69.02
2022-10-16T08:50:01.325Z,69.22
2022-10-16T08:51:01.319Z,69.12
2022-10-16T08:52:01.309Z,69.02
2022-10-16T08:53:01.330Z,68.92
2022-10-16T08:54:01.284Z,68.92
2022-10-16T08:55:01.273Z,69.12
2022-10-16T08:56:01.263Z,68.72
2022-10-16T08:57:01.253Z,68.72
2022-10-16T08:58:01.233Z,68.92
2022-10-16T08:59:02.916Z,69.12
2022-10-16T09:00:01.226Z,68.62
2022-10-16T09:01:01.328Z,68.69
2022-10-16T09:02:02.090Z,68.82
2022-10-16T09:03:01.253Z,69.39
2022-10-16T09:04:01.167Z,68.49
2022-10-16T09:05:01.194Z,68.29
2022-10-16T09:06:01.148Z,69.29
2022-10-16T09:07:01.148Z,69.19
2022-10-16T09:09:01.114Z,68.29
2022-10-16T09:10:01.105Z,68.72
2022-10-16T09:11:01.123Z,68.29
2022-10-16T09:12:01.078Z,68.39
2022-10-16T09:13:01.069Z,69.02
2022-10-16T09:14:01.056Z,69.22
2022-10-16T09:15:01.044Z,69.12
2022-10-16T09:16:01.038Z,69.22
2022-10-16T09:17:01.092Z,69.22
2022-10-16T09:18:01.012Z,68.32
2022-10-16T09:19:01.021Z,69.02
2022-10-16T09:20:01.000Z,69.02
2022-10-16T09:21:01.037Z,69.32
2022-10-16T09:22:00.963Z,69.35
2022-10-16T09:23:00.971Z,69.35
2022-10-16T09:24:00.938Z,69.32
2022-10-16T09:25:00.933Z,69.32
2022-10-16T09:26:00.912Z,68.42
2022-10-16T09:27:00.907Z,69.35
2022-10-16T09:28:00.898Z,69.22
2022-10-16T09:29:00.942Z,69.42
2022-10-16T09:30:00.888Z,68.92
2022-10-16T09:31:00.861Z,68.62
2022-10-16T09:32:00.850Z,68.72
2022-10-16T09:33:00.864Z,69.02
2022-10-16T09:34:00.823Z,68.59
2022-10-16T09:35:00.943Z,68.39
2022-10-16T09:36:00.802Z,68.49
2022-10-16T09:37:00.791Z,68.76
2022-10-16T09:38:00.786Z,68.69
2022-10-16T09:39:00.794Z,68.69
2022-10-16T09:40:05.149Z,68.55
2022-10-16T09:41:03.445Z,68.49
2022-10-16T09:42:00.740Z,68.29
2022-10-16T09:43:00.725Z,68.49
2022-10-16T09:44:00.790Z,68.49
2022-10-16T09:45:00.700Z,68.29
2022-10-16T09:46:00.694Z,68.49
2022-10-16T09:47:00.717Z,68.08
2022-10-16T09:48:01.406Z,68.69
2022-10-16T09:49:00.678Z,68.79
2022-10-16T09:50:00.652Z,68.79
2022-10-16T09:51:00.665Z,68.69
2022-10-16T09:52:00.624Z,68.79
2022-10-16T09:53:00.657Z,68.59
2022-10-16T09:54:00.619Z,68.55
2022-10-16T09:55:00.593Z,68.49
2022-10-16T09:56:00.654Z,68.26
2022-10-16T09:57:00.564Z,67.85
2022-10-16T09:58:00.553Z,68.85
2022-10-16T09:59:00.564Z,68.22
2022-10-16T10:00:00.538Z,68.32
2022-10-16T10:01:00.542Z,68.22
2022-10-16T10:02:01.091Z,68.35
2022-10-16T10:03:00.506Z,68.85
2022-10-16T10:04:00.488Z,68.76
2022-10-16T10:05:00.507Z,68.35
2022-10-16T10:06:02.146Z,68.35
2022-10-16T10:07:00.477Z,68.15
2022-10-16T10:08:00.464Z,68.26
2022-10-16T10:09:00.434Z,68.46
2022-10-16T10:10:00.417Z,68.26
2022-10-16T10:11:00.448Z,68.32
2022-10-16T10:12:00.497Z,68.32
2022-10-16T10:13:00.390Z,68.46
2022-10-16T10:14:00.376Z,68.22
2022-10-16T10:15:00.363Z,67.52
2022-10-16T10:16:00.353Z,68.32
2022-10-16T10:17:00.372Z,68.02
2022-10-16T10:18:00.349Z,68.02
2022-10-16T10:19:00.321Z,68.02
2022-10-16T10:20:00.305Z,67.72
2022-10-16T10:21:00.392Z,67.76
2022-10-16T10:22:00.287Z,67.76
2022-10-16T10:23:00.322Z,67.85
2022-10-16T10:24:00.264Z,68.02
2022-10-16T10:25:00.320Z,68.35
2022-10-16T10:26:00.241Z,67.96
2022-10-16T10:27:00.228Z,67.92
2022-10-16T10:28:00.214Z,68.12
2022-10-16T10:29:00.416Z,68.09
2022-10-16T10:30:00.187Z,68.29
2022-10-16T10:31:00.218Z,67.99
2022-10-16T10:32:00.171Z,68.09
2022-10-16T10:33:00.161Z,67.59
2022-10-16T10:34:00.152Z,67.39
2022-10-16T10:35:00.179Z,67.55
2022-10-16T10:36:00.130Z,67.76
2022-10-16T10:37:00.113Z,67.55
2022-10-16T10:38:00.104Z,67.36
2022-10-16T10:39:00.112Z,67.46
2022-10-16T10:40:00.091Z,67.25
2022-10-16T10:41:00.106Z,67.46
2022-10-16T10:42:00.064Z,67.46
2022-10-16T10:43:00.069Z,67.46
2022-10-16T10:44:00.033Z,67.63
2022-10-16T10:45:00.033Z,67.32
2022-10-16T10:46:00.028Z,67.32
2022-10-16T10:47:00.040Z,67.52
2022-10-16T10:48:00.004Z,67.43
2022-10-16T10:48:59.980Z,67.43
2022-10-16T10:49:59.968Z,67.22
2022-10-16T10:50:59.954Z,67.63
2022-10-16T10:51:59.941Z,67.72
2022-10-16T10:52:59.954Z,67.72
2022-10-16T10:53:59.921Z,67.52
2022-10-16T10:54:59.935Z,67.63
2022-10-16T10:55:59.910Z,67.43
2022-10-16T10:56:59.885Z,67.63
2022-10-16T10:57:59.880Z,67.72
2022-10-16T10:58:59.877Z,67.63
2022-10-16T10:59:59.859Z,67.63
2022-10-16T11:00:59.936Z,67.02
2022-10-16T11:02:00.782Z,67.52
2022-10-16T11:02:59.855Z,67.49
2022-10-16T11:03:59.842Z,67.49
2022-10-16T11:04:59.821Z,67.79
2022-10-16T11:05:59.787Z,66.89
2022-10-16T11:06:59.783Z,66.79
2022-10-16T11:07:59.766Z,66.89
2022-10-16T11:09:01.387Z,67.09
2022-10-16T11:09:59.741Z,66.86
2022-10-16T11:10:59.798Z,67.09
2022-10-16T11:11:59.724Z,67.19
2022-10-16T11:12:59.711Z,67.09
2022-10-16T11:13:59.733Z,67.06
2022-10-16T11:14:59.685Z,66.96
2022-10-16T11:16:00.629Z,67.09
2022-10-16T11:16:59.714Z,66.99
2022-10-16T11:17:59.648Z,66.86
2022-10-16T11:18:59.647Z,67.06
2022-10-16T11:19:59.632Z,67.16
2022-10-16T11:20:59.632Z,67.16
2022-10-16T11:21:59.610Z,66.89
2022-10-16T11:22:59.624Z,66.99
2022-10-16T11:23:59.589Z,66.99
2022-10-16T11:25:59.570Z,67.36
2022-10-16T11:26:59.577Z,67.09
2022-10-16T11:27:59.541Z,67.36
2022-10-16T11:28:59.699Z,66.96
2022-10-16T11:29:59.519Z,66.66
2022-10-16T11:30:59.505Z,66.66
2022-10-16T11:31:59.506Z,66.99
2022-10-16T11:32:59.488Z,66.66
2022-10-16T11:33:59.569Z,66.69
2022-10-16T11:34:59.497Z,66.66
2022-10-16T11:35:59.459Z,66.76
2022-10-16T11:36:59.436Z,66.76
2022-10-16T11:37:59.430Z,67.06
2022-10-16T11:38:59.418Z,67.06
2022-10-16T11:39:59.407Z,67.16
2022-10-16T11:40:59.425Z,66.86
2022-10-16T11:41:59.385Z,66.66
2022-10-16T11:42:59.456Z,66.76
2022-10-16T11:43:59.366Z,67.16
2022-10-16T11:44:59.355Z,66.76
2022-10-16T11:45:59.343Z,66.86
2022-10-16T11:47:24.468Z,66.86
2022-10-16T11:48:00.675Z,66.89
2022-10-16T11:48:59.306Z,66.79
2022-10-16T11:49:59.292Z,66.79
2022-10-16T11:50:59.317Z,66.59
2022-10-16T11:51:59.276Z,66.89
2022-10-16T11:52:59.269Z,66.99
2022-10-16T11:53:59.249Z,66.93
2022-10-16T11:54:59.234Z,66.89
2022-10-16T11:55:59.226Z,67.02
2022-10-16T11:56:59.296Z,66.93
2022-10-16T11:57:59.211Z,66.79
2022-10-16T11:58:59.240Z,66.99
2022-10-16T11:59:59.183Z,66.89
2022-10-16T12:00:59.169Z,67.09
2022-10-16T12:01:59.165Z,66.69
2022-10-16T12:02:59.152Z,66.49
2022-10-16T12:03:59.210Z,66.66
2022-10-16T12:04:59.140Z,66.79
2022-10-16T12:05:59.115Z,66.46
2022-10-16T12:06:59.165Z,66.46
2022-10-16T12:07:59.117Z,66.56
2022-10-16T12:08:59.079Z,66.56
2022-10-16T12:09:59.072Z,66.46
2022-10-16T12:10:59.146Z,66.56
2022-10-16T12:11:59.047Z,66.13
2022-10-16T12:12:59.055Z,66.23
2022-10-16T12:13:59.126Z,66.43
2022-10-16T12:15:15.234Z,66.43
2022-10-16T12:16:00.042Z,66.33
2022-10-16T12:16:58.990Z,66.43
2022-10-16T12:17:58.989Z,66.43
2022-10-16T12:18:58.977Z,66.43
2022-10-16T12:19:58.967Z,66.33
2022-10-16T12:20:58.946Z,66.23
2022-10-16T12:21:59.024Z,66.33
2022-10-16T12:22:58.920Z,66.43
2022-10-16T12:23:58.915Z,66.50
2022-10-16T12:24:58.899Z,66.09
2022-10-16T12:25:58.893Z,66.09
2022-10-16T12:26:58.880Z,66.20
2022-10-16T12:27:58.879Z,66.09
2022-10-16T12:28:59.066Z,66.20
2022-10-16T12:29:58.839Z,66.13
2022-10-16T12:30:58.866Z,66.20
2022-10-16T12:31:58.882Z,66.20
2022-10-16T12:32:58.810Z,66.03
2022-10-16T12:33:58.820Z,66.33
2022-10-16T12:34:58.784Z,66.43
2022-10-16T12:35:58.802Z,66.23
2022-10-16T12:36:58.772Z,66.43
2022-10-16T12:37:58.754Z,66.53
2022-10-16T12:38:58.791Z,66.43
2022-10-16T12:39:58.806Z,66.33
2022-10-16T12:40:58.727Z,66.53
2022-10-16T12:41:58.710Z,66.33
2022-10-16T12:42:58.711Z,66.46
2022-10-16T12:43:58.693Z,66.46
2022-10-16T12:44:58.678Z,66.46
2022-10-16T12:45:58.703Z,66.23
2022-10-16T12:46:58.690Z,66.56
2022-10-16T12:47:58.698Z,66.36
2022-10-16T12:49:07.937Z,66.26
2022-10-16T12:49:59.620Z,66.36
2022-10-16T12:50:58.609Z,66.36
2022-10-16T12:51:58.612Z,66.36
2022-10-16T12:52:58.591Z,66.16
2022-10-16T12:53:58.604Z,66.26
2022-10-16T12:54:58.563Z,66.16